Decoded Metar for LERS (REUS in SPAIN) (IATA:REU) | Meteo·Mobile Aviation Weather
aviador You're here:

LERS Decoded Metar

REUS in SPAIN
Report Time2019-07-24 04:00:00
UTC Time2019-07-24 04:15:59
Flight Rules vfr VFR
Wind010° at 02 kt
W.Decomp.*RWY 07: 1.0 kt HW 1.7 kt LCW
Visibility9999 m
Phenomena:N/A
Clouds:N/A
Expected CloudBase > 2,800 ft AGL from Temp-Dew spread
CeilingNone
Temp20°C (ISA +5)
Dew Point13°C (64% RH)
QNH1016 hPa
Density Alt991 ft
Elevation249 ft
Report Wrong Elevation
Raw Report
LERS 240400Z AUTO 01002KT 9999 NCD 20/13 Q1016=

Extra information for LERS:More info

Metar Taf Metar & Taf Last 4 Metars F.Rules Stats Wind Profile Meteogram Temp Stats Airport Information Weather charts Add Link Nearby VenuesMetar ALERT Operation Metar Decoded Social comments

Miami platja webcam
Mas La Palomera